sensor_id;sensor_type;location;lat;lon;timestamp;temperature;humidity
51884;DHT22;37915;53.254;6.598;2023-12-22T00:23:25;5.10;99.90
51884;DHT22;37915;53.254;6.598;2023-12-22T00:25:51;5.10;99.90
51884;DHT22;37915;53.254;6.598;2023-12-22T00:28:16;5.10;99.90
51884;DHT22;37915;53.254;6.598;2023-12-22T00:30:42;5.10;99.90
51884;DHT22;37915;53.254;6.598;2023-12-22T00:33:08;5.50;99.90
51884;DHT22;37915;53.254;6.598;2023-12-22T00:35:33;5.20;99.90
51884;DHT22;37915;53.254;6.598;2023-12-22T00:38:01;5.30;99.90
51884;DHT22;37915;53.254;6.598;2023-12-22T00:40:27;5.40;99.90
51884;DHT22;37915;53.254;6.598;2023-12-22T00:42:52;5.10;99.90
51884;DHT22;37915;53.254;6.598;2023-12-22T00:45:18;4.60;99.90
51884;DHT22;37915;53.254;6.598;2023-12-22T00:47:43;4.30;99.90
51884;DHT22;37915;53.254;6.598;2023-12-22T00:50:09;4.60;99.90
51884;DHT22;37915;53.254;6.598;2023-12-22T00:52:35;4.20;99.90
51884;DHT22;37915;53.254;6.598;2023-12-22T00:55:00;4.30;99.90
51884;DHT22;37915;53.254;6.598;2023-12-22T00:57:26;4.40;99.90
51884;DHT22;37915;53.254;6.598;2023-12-22T00:59:52;4.70;99.90
51884;DHT22;37915;53.254;6.598;2023-12-22T01:02:18;4.90;99.90
51884;DHT22;37915;53.254;6.598;2023-12-22T01:04:44;5.00;99.90
51884;DHT22;37915;53.254;6.598;2023-12-22T01:07:11;5.10;99.90
51884;DHT22;37915;53.254;6.598;2023-12-22T01:09:37;5.10;99.90
51884;DHT22;37915;53.254;6.598;2023-12-22T01:12:04;5.10;99.90
51884;DHT22;37915;53.254;6.598;2023-12-22T01:14:30;5.10;99.90
51884;DHT22;37915;53.254;6.598;2023-12-22T01:16:56;5.10;99.90
51884;DHT22;37915;53.254;6.598;2023-12-22T01:19:22;5.10;99.90
51884;DHT22;37915;53.254;6.598;2023-12-22T01:21:48;5.20;99.90
51884;DHT22;37915;53.254;6.598;2023-12-22T01:24:13;5.20;99.90
51884;DHT22;37915;53.254;6.598;2023-12-22T01:26:39;5.30;99.90
51884;DHT22;37915;53.254;6.598;2023-12-22T01:31:31;5.50;99.90
51884;DHT22;37915;53.254;6.598;2023-12-22T01:33:56;5.90;99.90
51884;DHT22;37915;53.254;6.598;2023-12-22T01:36:22;5.60;99.90
51884;DHT22;37915;53.254;6.598;2023-12-22T01:38:47;5.60;99.90
51884;DHT22;37915;53.254;6.598;2023-12-22T01:41:13;5.60;99.90
51884;DHT22;37915;53.254;6.598;2023-12-22T01:43:39;5.60;99.90
51884;DHT22;37915;53.254;6.598;2023-12-22T01:46:06;5.60;99.90
51884;DHT22;37915;53.254;6.598;2023-12-22T01:48:33;5.50;99.90
51884;DHT22;37915;53.254;6.598;2023-12-22T01:51:00;5.50;99.90
51884;DHT22;37915;53.254;6.598;2023-12-22T01:53:26;5.50;99.90
51884;DHT22;37915;53.254;6.598;2023-12-22T01:55:55;5.40;99.90
51884;DHT22;37915;53.254;6.598;2023-12-22T01:58:23;5.40;99.90
51884;DHT22;37915;53.254;6.598;2023-12-22T02:00:49;5.20;99.90
51884;DHT22;37915;53.254;6.598;2023-12-22T02:03:16;5.10;99.90
51884;DHT22;37915;53.254;6.598;2023-12-22T02:05:43;5.20;99.90
51884;DHT22;37915;53.254;6.598;2023-12-22T02:08:09;5.10;99.90
51884;DHT22;37915;53.254;6.598;2023-12-22T02:10:36;5.10;99.90
51884;DHT22;37915;53.254;6.598;2023-12-22T02:13:06;5.10;99.90
51884;DHT22;37915;53.254;6.598;2023-12-22T02:15:33;5.10;99.90
51884;DHT22;37915;53.254;6.598;2023-12-22T02:18:12;5.40;99.90
51884;DHT22;37915;53.254;6.598;2023-12-22T02:20:39;5.40;99.90
51884;DHT22;37915;53.254;6.598;2023-12-22T02:23:05;6.60;99.90
51884;DHT22;37915;53.254;6.598;2023-12-22T02:25:30;5.30;99.90
51884;DHT22;37915;53.254;6.598;2023-12-22T02:28:07;5.10;99.90
51884;DHT22;37915;53.254;6.598;2023-12-22T02:30:57;5.30;99.90
51884;DHT22;37915;53.254;6.598;2023-12-22T02:33:28;5.00;99.90
51884;DHT22;37915;53.254;6.598;2023-12-22T02:36:00;4.90;99.90
51884;DHT22;37915;53.254;6.598;2023-12-22T02:38:28;5.00;99.90
51884;DHT22;37915;53.254;6.598;2023-12-22T02:40:55;4.90;99.90
51884;DHT22;37915;53.254;6.598;2023-12-22T02:43:21;5.00;99.90
51884;DHT22;37915;53.254;6.598;2023-12-22T02:45:50;5.10;99.90
51884;DHT22;37915;53.254;6.598;2023-12-22T02:48:16;5.10;99.90
51884;DHT22;37915;53.254;6.598;2023-12-22T02:50:42;5.20;99.90
51884;DHT22;37915;53.254;6.598;2023-12-22T02:53:08;5.40;99.90
51884;DHT22;37915;53.254;6.598;2023-12-22T02:57:59;5.40;99.90
51884;DHT22;37915;53.254;6.598;2023-12-22T03:00:25;5.50;99.90
51884;DHT22;37915;53.254;6.598;2023-12-22T03:07:43;5.00;99.90
51884;DHT22;37915;53.254;6.598;2023-12-22T03:10:08;4.90;99.90
51884;DHT22;37915;53.254;6.598;2023-12-22T03:12:34;4.80;99.90
51884;DHT22;37915;53.254;6.598;2023-12-22T03:15:00;5.00;99.90
51884;DHT22;37915;53.254;6.598;2023-12-22T03:17:25;4.50;99.90
51884;DHT22;37915;53.254;6.598;2023-12-22T03:19:51;4.50;99.90
51884;DHT22;37915;53.254;6.598;2023-12-22T03:22:17;4.50;99.90
51884;DHT22;37915;53.254;6.598;2023-12-22T03:24:43;4.50;99.90
51884;DHT22;37915;53.254;6.598;2023-12-22T03:27:09;4.90;99.90
51884;DHT22;37915;53.254;6.598;2023-12-22T03:29:35;4.50;99.90
51884;DHT22;37915;53.254;6.598;2023-12-22T03:32:01;4.50;99.90
51884;DHT22;37915;53.254;6.598;2023-12-22T03:34:26;4.60;99.90
51884;DHT22;37915;53.254;6.598;2023-12-22T03:36:52;4.60;99.90
51884;DHT22;37915;53.254;6.598;2023-12-22T03:39:18;4.80;99.90
51884;DHT22;37915;53.254;6.598;2023-12-22T03:41:43;5.00;99.90
51884;DHT22;37915;53.254;6.598;2023-12-22T03:44:09;5.40;99.90
51884;DHT22;37915;53.254;6.598;2023-12-22T03:46:34;5.30;99.90
51884;DHT22;37915;53.254;6.598;2023-12-22T03:49:00;5.30;99.90
51884;DHT22;37915;53.254;6.598;2023-12-22T03:51:26;5.30;99.90
51884;DHT22;37915;53.254;6.598;2023-12-22T03:53:51;5.30;99.90
51884;DHT22;37915;53.254;6.598;2023-12-22T03:56:17;5.30;99.90
51884;DHT22;37915;53.254;6.598;2023-12-22T03:58:44;5.60;99.90
51884;DHT22;37915;53.254;6.598;2023-12-22T04:01:14;5.40;99.90
51884;DHT22;37915;53.254;6.598;2023-12-22T04:03:39;5.40;99.90
51884;DHT22;37915;53.254;6.598;2023-12-22T04:06:05;5.50;99.90
51884;DHT22;37915;53.254;6.598;2023-12-22T04:08:31;5.50;99.90
51884;DHT22;37915;53.254;6.598;2023-12-22T04:10:57;5.40;99.90
51884;DHT22;37915;53.254;6.598;2023-12-22T04:13:22;5.60;99.90
51884;DHT22;37915;53.254;6.598;2023-12-22T04:15:48;5.20;99.90
51884;DHT22;37915;53.254;6.598;2023-12-22T04:18:14;5.20;99.90
51884;DHT22;37915;53.254;6.598;2023-12-22T04:20:39;5.20;99.90
51884;DHT22;37915;53.254;6.598;2023-12-22T04:23:05;5.40;99.90
51884;DHT22;37915;53.254;6.598;2023-12-22T04:25:31;5.20;99.90
51884;DHT22;37915;53.254;6.598;2023-12-22T04:27:56;5.20;99.90
51884;DHT22;37915;53.254;6.598;2023-12-22T04:30:22;5.30;99.90
51884;DHT22;37915;53.254;6.598;2023-12-22T04:32:48;5.30;99.90
51884;DHT22;37915;53.254;6.598;2023-12-22T07:04:03;5.50;99.90
51884;DHT22;37915;53.254;6.598;2023-12-22T07:06:31;5.40;99.90
51884;DHT22;37915;53.254;6.598;2023-12-22T07:11:37;5.50;99.90
51884;DHT22;37915;53.254;6.598;2023-12-22T07:14:02;5.60;99.90
51884;DHT22;37915;53.254;6.598;2023-12-22T07:16:28;5.50;99.90
51884;DHT22;37915;53.254;6.598;2023-12-22T07:18:54;5.70;99.90
51884;DHT22;37915;53.254;6.598;2023-12-22T07:21:19;5.70;99.90
51884;DHT22;37915;53.254;6.598;2023-12-22T07:23:45;5.60;99.90
51884;DHT22;37915;53.254;6.598;2023-12-22T07:26:11;5.40;99.90
51884;DHT22;37915;53.254;6.598;2023-12-22T07:28:37;5.20;99.90
51884;DHT22;37915;53.254;6.598;2023-12-22T07:31:03;5.10;99.90
51884;DHT22;37915;53.254;6.598;2023-12-22T07:33:29;5.00;99.90
51884;DHT22;37915;53.254;6.598;2023-12-22T07:35:54;5.00;99.90
51884;DHT22;37915;53.254;6.598;2023-12-22T07:38:20;4.90;99.90
51884;DHT22;37915;53.254;6.598;2023-12-22T07:40:46;4.90;99.90
51884;DHT22;37915;53.254;6.598;2023-12-22T07:43:12;4.90;99.90
51884;DHT22;37915;53.254;6.598;2023-12-22T07:45:38;4.90;99.90
51884;DHT22;37915;53.254;6.598;2023-12-22T07:48:04;4.90;99.90
51884;DHT22;37915;53.254;6.598;2023-12-22T07:50:30;4.90;99.90
51884;DHT22;37915;53.254;6.598;2023-12-22T07:52:55;4.90;99.90
51884;DHT22;37915;53.254;6.598;2023-12-22T07:55:21;5.00;99.90
51884;DHT22;37915;53.254;6.598;2023-12-22T07:57:47;4.90;99.90
51884;DHT22;37915;53.254;6.598;2023-12-22T08:00:13;5.00;99.90
51884;DHT22;37915;53.254;6.598;2023-12-22T08:02:39;5.00;99.90
51884;DHT22;37915;53.254;6.598;2023-12-22T08:05:04;5.10;99.90
51884;DHT22;37915;53.254;6.598;2023-12-22T08:07:30;5.10;99.90
51884;DHT22;37915;53.254;6.598;2023-12-22T08:09:56;5.10;99.90
51884;DHT22;37915;53.254;6.598;2023-12-22T08:12:22;5.20;99.90
51884;DHT22;37915;53.254;6.598;2023-12-22T08:14:48;5.10;99.90
51884;DHT22;37915;53.254;6.598;2023-12-22T08:17:14;5.20;99.90
51884;DHT22;37915;53.254;6.598;2023-12-22T08:19:39;5.20;99.90
51884;DHT22;37915;53.254;6.598;2023-12-22T08:22:09;5.30;99.90
51884;DHT22;37915;53.254;6.598;2023-12-22T08:24:36;5.40;99.90
51884;DHT22;37915;53.254;6.598;2023-12-22T08:27:01;5.40;99.90
51884;DHT22;37915;53.254;6.598;2023-12-22T08:29:27;5.40;99.90
